Latest Coastal Weather Observations for Portland Harbour

IDS60701

Issued at 4:01 pm CDT Thursday 23 November 2017 (issued every 10 minutes, with the page automatically refreshed every 10 minutes)

About coastal observations | Map of coastal stations | Coastal observations for SA | Marine services | Other Formats
Station Details ID: 090192 Name: PORTLAND NTC AWS Lat: -38.34 Lon: 141.61 Height: 0.0 m
Data from the previous 72 hours. | See also: Recent months for locations in South Australia
Date/Time
CDT
Temp
°C
Wind Pressure Rain since
9am
mm
Weather Cloud Vis
km
Sea
Height
m
Swell
Dir  Spd
kts
Gust
kts
hPa Trend Height
m
Period
s
Dir
23/04:00pm 26.3 WSW 10 14 1008.3 - - - - - - - - -
23/03:30pm 26.4 SW 10 14 1008.6 - - - - - - - - -
23/03:00pm 27.2 SW 10 14 1008.7 - - - - - - - - -
23/02:30pm 27.4 WSW 7 13 1008.8 - - - - - - - - -
23/02:00pm 23.3 NE 2 4 1009.0 - - - - - - - - -
23/01:30pm 22.8 NE 3 4 1009.1 - - - - - - - - -
23/01:00pm 22.5 E 6 7 1009.3 - - - - - - - - -
23/12:30pm 21.9 ESE 8 10 1009.4 - - - - - - - - -
23/12:00pm 21.7 ESE 7 9 1009.4 - - - - - - - - -
23/11:30am 20.8 E 4 5 1009.5 - - - - - - - - -
23/11:00am 20.1 E 4 5 1009.4 - - - - - - - - -
23/10:30am 19.9 ENE 4 5 1009.5 - - - - - - - - -
23/10:00am 19.6 ENE 4 5 1009.6 - - - - - - - - -
23/09:30am 19.5 ENE 4 5 1009.6 - - - - - - - - -
23/09:00am 19.4 E 4 6 1009.8 - - - - - - - - -
23/08:30am 19.3 ENE 5 8 1009.5 - - - - - - - - -
23/08:00am 19.0 E 9 10 1009.3 - - - - - - - - -
23/07:30am 19.1 E 10 11 1009.2 - - - - - - - - -
23/07:00am 19.4 ESE 7 9 1009.3 - - - - - - - - -
23/06:30am 19.4 ESE 7 9 1009.1 - - - - - - - - -
23/06:00am 19.9 ESE 6 8 1009.0 - - - - - - - - -
23/05:30am 20.1 SE 6 7 1008.7 - - - - - - - - -
23/05:00am 20.6 ESE 4 5 1008.6 - - - - - - - - -
23/04:30am 20.8 E 3 5 1008.6 - - - - - - - - -
23/04:00am 20.7 ENE 4 5 1008.6 - - - - - - - - -
23/03:30am 20.8 NE 4 5 1008.8 - - - - - - - - -
23/03:00am 20.6 NE 6 7 1008.9 - - - - - - - - -
23/02:30am 21.0 NE 10 13 1008.9 - - - - - - - - -
23/02:00am 21.1 NE 9 11 1009.3 - - - - - - - - -
23/01:30am 21.3 NE 11 13 1009.7 - - - - - - - - -
23/01:00am 21.2 NE 9 11 1010.0 - - - - - - - - -
23/12:30am 20.8 E 6 7 1010.3 - - - - - - - - -
23/12:00am 20.9 E 8 10 1010.5 - - - - - - - - -
 
Date/Time
CDT
Temp
°C
Wind Pressure Rain since
9am
mm
Weather Cloud Vis
km
Sea
Height
m
Swell
Dir  Spd
kts
Gust
kts
hPa Trend Height
m
Period
s
Dir
22/11:30pm 21.0 ENE 8 10 1010.5 - - - - - - - - -
22/11:00pm 20.7 E 6 9 1010.6 - - - - - - - - -
22/10:30pm 20.3 E 6 8 1010.8 - - - - - - - - -
22/10:00pm 20.2 ENE 3 6 1010.9 - - - - - - - - -
22/09:30pm 20.4 NE 2 5 1010.9 - - - - - - - - -
22/09:00pm 20.8 E 4 9 1010.7 - - - - - - - - -
22/08:30pm 20.8 SSE 2 5 1010.6 - - - - - - - - -
22/08:00pm 21.0 E 9 17 1010.8 - - - - - - - - -
22/07:30pm 20.6 ESE 3 5 1010.7 - - - - - - - - -
22/07:00pm 21.4 SE 3 7 1010.5 - - - - - - - - -
22/06:30pm 21.7 SE 5 11 1010.3 - - - - - - - - -
22/06:00pm 22.0 ESE 14 17 1010.0 - - - - - - - - -
22/05:30pm 22.1 ESE 13 16 1010.2 - - - - - - - - -
22/05:00pm 22.5 ESE 15 18 1010.3 - - - - - - - - -
22/04:30pm 23.4 ESE 15 17 1010.5 - - - - - - - - -
22/04:00pm 24.7 SE 11 13 1010.7 - - - - - - - - -
22/03:30pm 26.9 ESE 7 9 1010.8 - - - - - - - - -
22/03:00pm 28.1 NE 7 10 1011.0 - - - - - - - - -
22/02:30pm 28.0 NE 8 11 1011.4 - - - - - - - - -
22/02:00pm 27.7 NNE 7 9 1011.7 - - - - - - - - -
22/01:30pm 28.9 NNE 8 14 1011.9 - - - - - - - - -
22/01:00pm 27.5 NE 4 8 1012.3 - - - - - - - - -
22/12:30pm 28.1 N 11 14 1012.7 - - - - - - - - -
22/12:00pm 26.5 NE 7 11 1013.1 - - - - - - - - -
22/11:30am 25.6 NE 8 11 1013.5 - - - - - - - - -
22/11:00am 25.6 NE 9 11 1013.7 - - - - - - - - -
22/10:30am 24.9 ENE 3 7 1013.8 - - - - - - - - -
22/10:00am 24.7 ENE 4 6 1013.9 - - - - - - - - -
22/09:30am 24.4 E 5 7 1014.1 - - - - - - - - -
22/09:00am 24.3 NE 4 6 1014.2 - - - - - - - - -
22/08:30am 24.1 NNE 2 4 1014.1 - - - - - - - - -
22/08:00am 23.3 N 2 3 1014.1 - - - - - - - - -
22/07:30am 23.4 NNW 1 3 1013.9 - - - - - - - - -
22/07:00am 21.8 WNW 2 6 1013.7 - - - - - - - - -
22/06:30am 21.9 NNE 3 5 1013.5 - - - - - - - - -
22/06:00am 19.9 NNE 2 4 1013.4 - - - - - - - - -
22/05:30am 18.5 NW 1 3 1013.3 - - - - - - - - -
22/05:00am 18.1 S 1 2 1013.2 - - - - - - - - -
22/04:30am 17.8 CALM 0 1 1013.0 - - - - - - - - -
22/04:00am 17.5 SW 3 3 1012.9 - - - - - - - - -
22/03:30am 17.7 SW 3 3 1012.9 - - - - - - - - -
22/03:00am 17.6 SW 2 3 1013.1 - - - - - - - - -
22/02:30am 17.8 SW 2 3 1013.3 - - - - - - - - -
22/02:00am 18.4 SW 2 3 1013.3 - - - - - - - - -
22/01:30am 18.9 CALM 0 1 1013.5 - - - - - - - - -
22/01:00am 20.2 SE 1 2 1013.8 - - - - - - - - -
22/12:30am 20.2 E 2 4 1014.1 - - - - - - - - -
22/12:00am 20.3 ESE 2 4 1014.4 - - - - - - - - -
 
Date/Time
CDT
Temp
°C
Wind Pressure Rain since
9am
mm
Weather Cloud Vis
km
Sea
Height
m
Swell
Dir  Spd
kts
Gust
kts
hPa Trend Height
m
Period
s
Dir
21/11:30pm 19.9 SE 4 5 1014.6 - - - - - - - - -
21/11:00pm 19.8 ESE 6 9 1015.0 - - - - - - - - -
21/10:30pm 19.9 ESE 6 8 1015.1 - - - - - - - - -
21/10:00pm 19.9 E 7 10 1015.4 - - - - - - - - -
21/09:30pm 19.8 E 8 10 1015.5 - - - - - - - - -
21/09:00pm 19.9 ENE 7 9 1015.4 - - - - - - - - -
21/08:30pm 20.4 E 4 7 1015.3 - - - - - - - - -
21/08:00pm 20.6 ESE 6 9 1015.2 - - - - - - - - -
21/07:30pm 20.3 ENE 4 7 1015.3 - - - - - - - - -
21/07:00pm 21.2 SE 9 12 1015.1 - - - - - - - - -
21/06:30pm 21.6 ESE 9 11 1015.1 - - - - - - - - -
21/06:00pm 21.7 SE 5 8 1015.0 - - - - - - - - -
21/05:30pm 22.2 SSE 4 8 1015.0 - - - - - - - - -
21/05:00pm 22.1 SE 8 13 1015.1 - - - - - - - - -
21/04:30pm 22.3 SE 10 13 1015.3 - - - - - - - - -
21/04:00pm 22.0 SE 10 13 1015.5 - - - - - - - - -
21/03:30pm 23.2 ESE 11 16 1015.5 - - - - - - - - -
21/03:00pm 23.5 ESE 12 15 1015.8 - - - - - - - - -
21/02:30pm 23.3 ESE 10 12 1016.2 - - - - - - - - -
21/02:00pm 24.1 ESE 8 10 1016.4 - - - - - - - - -
21/01:30pm 22.7 ESE 9 11 1016.7 - - - - - - - - -
21/01:00pm 22.8 ESE 9 11 1016.9 - - - - - - - - -
21/12:30pm 22.5 ESE 8 11 1017.2 - - - - - - - - -
21/12:00pm 22.5 ESE 6 7 1017.6 - - - - - - - - -
21/11:30am 22.2 ESE 4 7 1017.8 - - - - - - - - -
21/11:00am 21.6 ESE 5 8 1018.0 - - - - - - - - -
21/10:30am 20.7 E 6 9 1018.1 - - - - - - - - -
21/10:00am 20.6 E 6 7 1018.1 - - - - - - - - -
21/09:30am 20.1 E 6 8 1018.3 - - - - - - - - -
21/09:00am 19.6 E 7 8 1018.4 - - - - - - - - -
21/08:30am 19.4 E 6 8 1018.5 - - - - - - - - -
21/08:00am 19.1 ENE 7 8 1018.5 - - - - - - - - -
21/07:30am 19.6 ENE 4 6 1018.5 - - - - - - - - -
21/07:00am 20.8 NNE 1 2 1018.3 - - - - - - - - -
21/06:30am 20.0 CALM 0 1 1018.1 - - - - - - - - -
21/06:00am 18.7 CALM 0 1 1018.0 - - - - - - - - -
21/05:30am 19.9 NNE 5 7 1017.7 - - - - - - - - -
21/05:00am 19.8 ENE 6 7 1017.1 - - - - - - - - -
21/04:30am 19.8 ENE 5 6 1017.1 - - - - - - - - -
21/04:00am 20.0 ENE 7 8 1016.9 - - - - - - - - -
21/03:30am 20.0 ENE 7 9 1017.0 - - - - - - - - -
21/03:00am 20.3 ENE 8 9 1017.0 - - - - - - - - -
21/02:30am 20.7 NE 7 9 1017.0 - - - - - - - - -
21/02:00am 20.8 ENE 2 6 1017.2 - - - - - - - - -
21/01:30am 20.1 SE 4 5 1017.4 - - - - - - - - -
21/01:00am 19.9 E 5 7 1017.8 - - - - - - - - -
21/12:30am 20.0 ENE 6 8 1018.1 - - - - - - - - -
21/12:00am 19.7 E 8 11 1018.3 - - - - - - - - -
 
Date/Time
CDT
Temp
°C
Wind Pressure Rain since
9am
mm
Weather Cloud Vis
km
Sea
Height
m
Swell
Dir  Spd
kts
Gust
kts
hPa Trend Height
m
Period
s
Dir
20/11:30pm 19.6 ESE 5 9 1018.5 - - - - - - - - -
20/11:00pm 19.3 E 3 5 1018.7 - - - - - - - - -
20/10:30pm 19.6 ENE 7 11 1018.7 - - - - - - - - -
20/10:00pm 20.4 ESE 8 15 1018.6 - - - - - - - - -
20/09:30pm 20.2 SE 1 5 1018.7 - - - - - - - - -
20/09:00pm 19.9 E 3 9 1018.5 - - - - - - - - -
20/08:30pm 20.3 ESE 9 14 1018.1 - - - - - - - - -
20/08:00pm 20.7 ESE 14 21 1018.0 - - - - - - - - -
20/07:30pm 21.1 ESE 11 15 1018.0 - - - - - - - - -
20/07:00pm 20.9 SE 14 17 1017.7 - - - - - - - - -
20/06:30pm 20.3 NNE 1 3 1017.9 - - - - - - - - -
20/06:00pm 20.3 ESE 2 5 1018.0 - - - - - - - - -
20/05:30pm 20.6 SE 4 9 1018.1 - - - - - - - - -
20/05:00pm 20.6 SE 7 13 1018.1 - - - - - - - - -
20/04:30pm 20.9 SE 11 15 1018.0 - - - - - - - - -
20/04:00pm 21.3 SE 13 16 1018.1 - - - - - - - - -

Other Formats:

Comma delimited format used in spreadsheet applications
http://www.bom.gov.au/fwo/IDS60701/IDS60701.95826.axf

JavaScript Object Notation format (JSON) in row-major order
http://www.bom.gov.au/fwo/IDS60701/IDS60701.95826.json